Flight Track Log - Related Links

Times and Time Zones

All times are in EDT time to prevent confusion due to time zone crossing. See the QXE2087 flight status page for this flight to view local times or setup timezone preferences in your user account.

Time Position Orientation Groundspeed Altitude Reporting Facility
EDT Latitude Longitude Course Direction KTS MPH feet Rate Location/Type
Wed 09:34:00 AM 46.2248 -118.9485 287° West  Level FlightAware Approximate
Wed 09:35:00 AM 46.2485 -119.0598 287° West  Level FlightAware Approximate
Wed 09:36:00 AM 46.2679 -119.1713 290° West  Level FlightAware Approximate
Wed 09:37:00 AM 46.2954 -119.2809 290° West  Level FlightAware Approximate
Wed 09:38:00 AM 46.3227 -119.3905 290° West  Level FlightAware Approximate
Wed 09:39:00 AM 46.3422 -119.5029 284° West  Level FlightAware Approximate
Wed 09:40:00 AM 46.3661 -119.6142 290° West  Level FlightAware Approximate
Wed 09:41:00 AM 46.4025 -119.7181 297° West  Level FlightAware Approximate
Wed 09:42:00 AM 46.4388 -119.8223 297° West  Level FlightAware Approximate
Wed 09:43:00 AM 46.4751 -119.9266 297° West  Level FlightAware Approximate
Wed 09:44:00 AM 46.5091 -120.0250 297° West  Level FlightAware Approximate
Wed 09:45:00 AM 46.5431 -120.1235 297° West  Level FlightAware Approximate
Wed 09:46:00 AM 46.5770 -120.2221 297° West  Level FlightAware Approximate
Wed 09:47:00 AM 46.6108 -120.3209 297° West  Level FlightAware Approximate
Wed 09:48:00 AM 46.6445 -120.4197 296° West  Level FlightAware Approximate
Wed 09:49:00 AM 46.6781 -120.5187 296° West  Level FlightAware Approximate
Wed 09:50:00 AM 46.7107 -120.6218 292° West  Level FlightAware Approximate
Wed 09:51:00 AM 46.7393 -120.7243 292° West  Level FlightAware Approximate
Wed 09:52:00 AM 46.7677 -120.8268 292° West  Level FlightAware Approximate
Wed 09:53:00 AM 46.7950 -120.9301 290° West  Level FlightAware Approximate
Wed 09:54:00 AM 46.8362 -121.0223 306° West  Level FlightAware Approximate
Wed 09:55:00 AM 46.8786 -121.1141 303° West  Level FlightAware Approximate
Wed 09:56:00 AM 46.9200 -121.2071 303° West  Level FlightAware Approximate
Wed 09:57:00 AM 46.9613 -121.3002 303° West  Level FlightAware Approximate
Wed 09:58:00 AM 47.0102 -121.3729 303° West  Level FlightAware Approximate
Wed 09:59:00 AM 47.0516 -121.4661 303° West  Level FlightAware Approximate
Wed 10:00:00 AM 47.0833 -121.5665 290° West  Level FlightAware Approximate
Wed 10:01:00 AM 47.1320 -121.6518 310° West  Level FlightAware Approximate
Wed 10:02:00 AM 47.1716 -121.7432 306° West  Level FlightAware Approximate
Wed 10:03:00 AM 47.2206 -121.8265 301° West  Level FlightAware Approximate
Wed 10:04:00 AM 47.2591 -121.9227 301° West  Level FlightAware Approximate
Wed 10:05:00 AM 47.2957 -122.0205 296° West  Level FlightAware Approximate
Wed 10:06:00 AM 47.3473 -122.1252 296° West  Level FlightAware Approximate
Wed 10:07:00 AM 47.3998 -122.2330 306° West  Level FlightAware Approximate
Wed 10:08:00 AM 47.4333 -122.3000 306° West  Level FlightAware Approximate
Wed 10:09:00 AM 47.4499 -122.3118 306° West  Level Estimated
Wed 10:10:00 AM 47.4499 -122.3118 306° West  Level Estimated
Wed 10:11:00 AM 47.4499 -122.3118 306° West  Level Estimated
Wed 10:12:00 AM 47.4499 -122.3118 306° West  Level Estimated
Wed 10:13:00 AM 47.4499 -122.3118 306° West  Level Estimated
Wed 10:14:00 AM 47.4499 -122.3118 306° West  Level Estimated
Wed 10:15:00 AM 47.4499 -122.3118 306° West  Level Estimated
Wed 10:16:00 AM 47.4499 -122.3118 306° West  Level Estimated
Wed 10:17:00 AM 47.4499 -122.3118 306° West  Level Estimated
Wed 10:18:00 AM 47.4499 -122.3118 306° West  Level Estimated

Login

Don't have an account? Register now (free) for customized features, flight alerts, and more!